sensor_id;sensor_type;location;lat;lon;timestamp;pressure;altitude;pressure_sealevel;temperature;humidity
83488;BME280;73424;49.994;8.184;2024-01-10T00:00:30;101153.53;;;-7.59;79.45
83488;BME280;73424;49.994;8.184;2024-01-10T00:02:55;101158.59;;;-7.56;79.94
83488;BME280;73424;49.994;8.184;2024-01-10T00:05:20;101161.34;;;-7.60;79.04
83488;BME280;73424;49.994;8.184;2024-01-10T00:07:46;101094.38;;;-7.93;79.70
83488;BME280;73424;49.994;8.184;2024-01-10T00:10:11;101142.56;;;-7.65;79.34
83488;BME280;73424;49.994;8.184;2024-01-10T00:12:36;101131.34;;;-7.66;78.49
83488;BME280;73424;49.994;8.184;2024-01-10T00:15:05;101108.41;;;-7.77;78.99
83488;BME280;73424;49.994;8.184;2024-01-10T00:17:31;101104.19;;;-7.79;77.02
83488;BME280;73424;49.994;8.184;2024-01-10T00:19:56;101120.53;;;-7.54;76.12
83488;BME280;73424;49.994;8.184;2024-01-10T00:22:22;101093.22;;;-7.62;75.10
83488;BME280;73424;49.994;8.184;2024-01-10T00:24:47;101127.34;;;-7.30;75.10
83488;BME280;73424;49.994;8.184;2024-01-10T00:27:12;101136.94;;;-7.32;76.79
83488;BME280;73424;49.994;8.184;2024-01-10T00:29:38;101102.13;;;-7.46;76.22
83488;BME280;73424;49.994;8.184;2024-01-10T00:32:03;101133.03;;;-7.20;74.95
83488;BME280;73424;49.994;8.184;2024-01-10T00:34:29;101108.59;;;-7.36;75.91
83488;BME280;73424;49.994;8.184;2024-01-10T00:36:54;101115.91;;;-7.24;76.95
83488;BME280;73424;49.994;8.184;2024-01-10T00:39:20;101094.47;;;-7.49;77.22
83488;BME280;73424;49.994;8.184;2024-01-10T00:41:45;101130.19;;;-7.36;76.49
83488;BME280;73424;49.994;8.184;2024-01-10T00:44:10;101102.41;;;-7.32;76.31
83488;BME280;73424;49.994;8.184;2024-01-10T00:46:36;101129.56;;;-6.97;73.90
83488;BME280;73424;49.994;8.184;2024-01-10T00:49:01;101100.19;;;-7.20;74.38
83488;BME280;73424;49.994;8.184;2024-01-10T00:51:26;101130.50;;;-7.00;73.36
83488;BME280;73424;49.994;8.184;2024-01-10T00:53:52;101125.25;;;-6.77;70.64
83488;BME280;73424;49.994;8.184;2024-01-10T00:56:17;101118.53;;;-6.60;69.16
83488;BME280;73424;49.994;8.184;2024-01-10T00:58:42;101107.72;;;-6.72;69.74
83488;BME280;73424;49.994;8.184;2024-01-10T01:01:07;101129.53;;;-6.55;69.88
83488;BME280;73424;49.994;8.184;2024-01-10T01:03:33;101095.44;;;-6.67;68.56
83488;BME280;73424;49.994;8.184;2024-01-10T01:05:58;101123.34;;;-6.51;68.98
83488;BME280;73424;49.994;8.184;2024-01-10T01:08:24;101115.03;;;-6.39;68.20
83488;BME280;73424;49.994;8.184;2024-01-10T01:10:49;101084.31;;;-6.50;67.98
83488;BME280;73424;49.994;8.184;2024-01-10T01:13:14;101120.84;;;-6.14;67.30
83488;BME280;73424;49.994;8.184;2024-01-10T01:15:39;101124.94;;;-6.09;67.57
83488;BME280;73424;49.994;8.184;2024-01-10T01:18:06;101132.19;;;-5.96;67.25
83488;BME280;73424;49.994;8.184;2024-01-10T01:20:32;101120.53;;;-5.69;64.84
83488;BME280;73424;49.994;8.184;2024-01-10T01:22:57;101115.25;;;-5.68;64.37
83488;BME280;73424;49.994;8.184;2024-01-10T01:25:23;101122.63;;;-5.59;64.63
83488;BME280;73424;49.994;8.184;2024-01-10T01:27:48;101083.53;;;-5.93;64.65
83488;BME280;73424;49.994;8.184;2024-01-10T01:30:14;101116.22;;;-5.87;66.46
83488;BME280;73424;49.994;8.184;2024-01-10T01:32:39;101126.84;;;-5.75;65.61
83488;BME280;73424;49.994;8.184;2024-01-10T01:35:04;101123.47;;;-5.95;67.41
83488;BME280;73424;49.994;8.184;2024-01-10T01:37:30;101096.69;;;-6.16;67.06
83488;BME280;73424;49.994;8.184;2024-01-10T01:39:55;101079.69;;;-6.23;67.52
83488;BME280;73424;49.994;8.184;2024-01-10T01:42:20;101119.06;;;-5.93;68.06
83488;BME280;73424;49.994;8.184;2024-01-10T01:44:46;101066.94;;;-6.28;67.00
83488;BME280;73424;49.994;8.184;2024-01-10T01:47:11;101118.50;;;-6.00;67.46
83488;BME280;73424;49.994;8.184;2024-01-10T01:49:37;101135.88;;;-6.02;67.44
83488;BME280;73424;49.994;8.184;2024-01-10T01:52:02;101099.44;;;-6.19;67.66
83488;BME280;73424;49.994;8.184;2024-01-10T01:54:29;101125.50;;;-6.02;68.78
83488;BME280;73424;49.994;8.184;2024-01-10T01:56:55;101124.66;;;-6.02;68.08
83488;BME280;73424;49.994;8.184;2024-01-10T01:59:21;101115.09;;;-5.83;67.25
83488;BME280;73424;49.994;8.184;2024-01-10T02:01:46;101108.72;;;-5.76;66.41
83488;BME280;73424;49.994;8.184;2024-01-10T02:04:12;101112.03;;;-5.73;66.55
83488;BME280;73424;49.994;8.184;2024-01-10T02:13:21;101113.19;;;-5.60;65.69
83488;BME280;73424;49.994;8.184;2024-01-10T02:15:47;101125.78;;;-5.71;66.31
83488;BME280;73424;49.994;8.184;2024-01-10T02:18:12;101103.53;;;-5.95;66.90
83488;BME280;73424;49.994;8.184;2024-01-10T02:20:39;101111.19;;;-5.92;68.20
83488;BME280;73424;49.994;8.184;2024-01-10T02:23:04;101073.50;;;-6.21;67.76
83488;BME280;73424;49.994;8.184;2024-01-10T02:25:30;101087.59;;;-6.06;66.80
83488;BME280;73424;49.994;8.184;2024-01-10T02:27:55;101116.66;;;-5.79;66.63
83488;BME280;73424;49.994;8.184;2024-01-10T02:30:20;101075.97;;;-5.97;66.98
83488;BME280;73424;49.994;8.184;2024-01-10T02:32:46;101101.66;;;-5.91;66.77
83488;BME280;73424;49.994;8.184;2024-01-10T02:35:11;101081.25;;;-6.19;67.52
83488;BME280;73424;49.994;8.184;2024-01-10T02:37:37;101117.56;;;-5.99;67.58
83488;BME280;73424;49.994;8.184;2024-01-10T02:40:02;101091.06;;;-6.05;67.94
83488;BME280;73424;49.994;8.184;2024-01-10T02:42:27;101118.28;;;-5.95;67.60
83488;BME280;73424;49.994;8.184;2024-01-10T02:44:54;101106.41;;;-6.01;68.43
83488;BME280;73424;49.994;8.184;2024-01-10T02:47:19;101083.09;;;-6.21;69.17
83488;BME280;73424;49.994;8.184;2024-01-10T02:49:44;101095.13;;;-6.20;69.55
83488;BME280;73424;49.994;8.184;2024-01-10T02:52:09;101087.25;;;-6.37;69.65
83488;BME280;73424;49.994;8.184;2024-01-10T02:54:35;101086.13;;;-6.32;68.83
83488;BME280;73424;49.994;8.184;2024-01-10T02:57:00;101106.09;;;-6.14;68.92
83488;BME280;73424;49.994;8.184;2024-01-10T02:59:25;101061.59;;;-6.45;69.00
83488;BME280;73424;49.994;8.184;2024-01-10T03:01:50;101104.22;;;-6.10;68.96
83488;BME280;73424;49.994;8.184;2024-01-10T03:04:16;101067.91;;;-6.30;68.85
83488;BME280;73424;49.994;8.184;2024-01-10T03:06:41;101085.91;;;-6.07;67.78
83488;BME280;73424;49.994;8.184;2024-01-10T03:09:06;101029.13;;;-6.53;69.16
83488;BME280;73424;49.994;8.184;2024-01-10T03:11:32;101085.06;;;-6.08;69.32
83488;BME280;73424;49.994;8.184;2024-01-10T03:14:07;101056.09;;;-6.37;69.99
83488;BME280;73424;49.994;8.184;2024-01-10T03:16:33;101067.13;;;-6.32;69.87
83488;BME280;73424;49.994;8.184;2024-01-10T03:18:58;100952.13;;;-6.92;68.47
83488;BME280;73424;49.994;8.184;2024-01-10T03:21:24;101078.84;;;-6.24;70.06
83488;BME280;73424;49.994;8.184;2024-01-10T03:23:51;101044.16;;;-6.41;69.38
83488;BME280;73424;49.994;8.184;2024-01-10T03:26:16;101061.56;;;-6.43;69.60
83488;BME280;73424;49.994;8.184;2024-01-10T03:28:42;101039.75;;;-6.59;70.03
83488;BME280;73424;49.994;8.184;2024-01-10T03:31:07;101071.09;;;-6.44;71.63
83488;BME280;73424;49.994;8.184;2024-01-10T03:33:32;101086.97;;;-6.31;70.47
83488;BME280;73424;49.994;8.184;2024-01-10T03:35:58;101068.81;;;-6.31;71.06
83488;BME280;73424;49.994;8.184;2024-01-10T03:38:23;101071.78;;;-6.20;70.60
83488;BME280;73424;49.994;8.184;2024-01-10T03:40:48;101074.75;;;-6.29;70.85
83488;BME280;73424;49.994;8.184;2024-01-10T03:43:14;101055.06;;;-6.33;70.56
83488;BME280;73424;49.994;8.184;2024-01-10T03:45:39;101060.31;;;-6.35;70.58
83488;BME280;73424;49.994;8.184;2024-01-10T03:48:05;101023.97;;;-6.35;69.91
83488;BME280;73424;49.994;8.184;2024-01-10T03:50:31;101066.13;;;-6.10;69.46
83488;BME280;73424;49.994;8.184;2024-01-10T03:52:56;101069.19;;;-6.01;70.24
83488;BME280;73424;49.994;8.184;2024-01-10T03:55:21;101089.22;;;-6.03;70.20
83488;BME280;73424;49.994;8.184;2024-01-10T03:57:46;101021.31;;;-6.33;69.35
83488;BME280;73424;49.994;8.184;2024-01-10T04:00:12;101055.50;;;-6.05;69.65
83488;BME280;73424;49.994;8.184;2024-01-10T04:02:37;101022.56;;;-6.23;70.38
83488;BME280;73424;49.994;8.184;2024-01-10T04:05:09;101031.28;;;-6.24;72.18
83488;BME280;73424;49.994;8.184;2024-01-10T04:07:36;101065.97;;;-6.07;71.46
83488;BME280;73424;49.994;8.184;2024-01-10T04:10:02;101028.13;;;-6.31;70.68
83488;BME280;73424;49.994;8.184;2024-01-10T04:12:28;101076.94;;;-6.00;70.09
83488;BME280;73424;49.994;8.184;2024-01-10T04:14:53;101005.03;;;-6.37;70.79
83488;BME280;73424;49.994;8.184;2024-01-10T04:17:18;101051.25;;;-6.06;70.35
83488;BME280;73424;49.994;8.184;2024-01-10T04:19:44;101060.97;;;-6.11;70.40
83488;BME280;73424;49.994;8.184;2024-01-10T04:22:09;101061.34;;;-6.19;70.09
83488;BME280;73424;49.994;8.184;2024-01-10T04:24:34;101037.72;;;-6.33;69.66
83488;BME280;73424;49.994;8.184;2024-01-10T04:26:59;101079.41;;;-6.17;69.65
83488;BME280;73424;49.994;8.184;2024-01-10T04:29:25;101076.38;;;-6.07;68.98
83488;BME280;73424;49.994;8.184;2024-01-10T04:31:50;101025.97;;;-6.21;69.52
83488;BME280;73424;49.994;8.184;2024-01-10T04:34:15;101076.84;;;-5.80;68.84
83488;BME280;73424;49.994;8.184;2024-01-10T04:36:40;101064.63;;;-5.78;68.81
83488;BME280;73424;49.994;8.184;2024-01-10T04:39:06;101068.06;;;-5.77;68.44
83488;BME280;73424;49.994;8.184;2024-01-10T04:41:31;101071.03;;;-5.66;68.03
83488;BME280;73424;49.994;8.184;2024-01-10T04:43:56;101073.97;;;-5.55;67.41
83488;BME280;73424;49.994;8.184;2024-01-10T04:46:22;101013.44;;;-5.76;67.32
83488;BME280;73424;49.994;8.184;2024-01-10T04:48:47;101037.72;;;-5.58;66.61
83488;BME280;73424;49.994;8.184;2024-01-10T04:51:12;101071.97;;;-5.31;67.04
83488;BME280;73424;49.994;8.184;2024-01-10T04:53:39;101070.00;;;-5.26;66.90
83488;BME280;73424;49.994;8.184;2024-01-10T04:56:05;101082.50;;;-5.34;68.33
83488;BME280;73424;49.994;8.184;2024-01-10T04:58:31;101038.44;;;-5.55;69.10
83488;BME280;73424;49.994;8.184;2024-01-10T05:00:58;101079.63;;;-5.28;67.92
83488;BME280;73424;49.994;8.184;2024-01-10T05:03:23;101060.34;;;-5.41;69.60
83488;BME280;73424;49.994;8.184;2024-01-10T05:05:48;101074.09;;;-5.39;68.50
83488;BME280;73424;49.994;8.184;2024-01-10T05:08:13;101055.28;;;-5.44;67.84
83488;BME280;73424;49.994;8.184;2024-01-10T05:10:39;101074.66;;;-5.33;67.32
83488;BME280;73424;49.994;8.184;2024-01-10T05:13:04;101035.44;;;-5.47;67.19
83488;BME280;73424;49.994;8.184;2024-01-10T05:15:29;101074.28;;;-5.25;66.93
83488;BME280;73424;49.994;8.184;2024-01-10T05:17:54;101074.22;;;-5.24;68.81
83488;BME280;73424;49.994;8.184;2024-01-10T05:20:21;101053.72;;;-5.48;68.76
83488;BME280;73424;49.994;8.184;2024-01-10T05:22:46;101070.75;;;-5.24;67.91
83488;BME280;73424;49.994;8.184;2024-01-10T05:25:11;101029.81;;;-5.38;67.17
83488;BME280;73424;49.994;8.184;2024-01-10T05:27:37;101023.94;;;-5.41;67.08
83488;BME280;73424;49.994;8.184;2024-01-10T05:30:03;101028.16;;;-5.39;67.67
83488;BME280;73424;49.994;8.184;2024-01-10T05:32:28;101051.50;;;-5.20;67.05
83488;BME280;73424;49.994;8.184;2024-01-10T05:34:54;101013.69;;;-5.44;66.94
83488;BME280;73424;49.994;8.184;2024-01-10T05:37:19;101034.72;;;-5.32;67.35
83488;BME280;73424;49.994;8.184;2024-01-10T05:39:44;101068.97;;;-5.05;66.28
83488;BME280;73424;49.994;8.184;2024-01-10T05:42:10;101040.88;;;-5.16;67.04
83488;BME280;73424;49.994;8.184;2024-01-10T05:44:36;101063.78;;;-5.05;67.26
83488;BME280;73424;49.994;8.184;2024-01-10T05:47:01;101044.09;;;-5.11;67.08
83488;BME280;73424;49.994;8.184;2024-01-10T05:49:27;101022.41;;;-5.28;66.74
83488;BME280;73424;49.994;8.184;2024-01-10T05:51:53;101070.63;;;-5.04;68.08
83488;BME280;73424;49.994;8.184;2024-01-10T05:54:18;101054.88;;;-5.01;67.13
83488;BME280;73424;49.994;8.184;2024-01-10T05:56:44;101068.13;;;-5.06;67.85
83488;BME280;73424;49.994;8.184;2024-01-10T05:59:09;101083.13;;;-5.11;68.48
83488;BME280;73424;49.994;8.184;2024-01-10T06:01:36;101033.56;;;-5.43;68.20
83488;BME280;73424;49.994;8.184;2024-01-10T06:04:02;101019.91;;;-5.66;69.56
83488;BME280;73424;49.994;8.184;2024-01-10T06:06:27;101052.09;;;-5.32;66.74
83488;BME280;73424;49.994;8.184;2024-01-10T06:08:52;101013.50;;;-5.59;68.03
83488;BME280;73424;49.994;8.184;2024-01-10T06:11:18;101006.06;;;-5.66;68.23
83488;BME280;73424;49.994;8.184;2024-01-10T06:13:43;101046.63;;;-5.45;68.04
83488;BME280;73424;49.994;8.184;2024-01-10T06:16:08;101056.81;;;-5.40;67.97
83488;BME280;73424;49.994;8.184;2024-01-10T06:18:34;101063.84;;;-5.42;67.78
83488;BME280;73424;49.994;8.184;2024-01-10T06:20:59;101030.16;;;-5.63;68.14
83488;BME280;73424;49.994;8.184;2024-01-10T06:23:24;101052.19;;;-5.53;69.50
83488;BME280;73424;49.994;8.184;2024-01-10T06:25:50;101041.22;;;-5.59;69.03
83488;BME280;73424;49.994;8.184;2024-01-10T06:28:15;101068.13;;;-5.41;69.04
83488;BME280;73424;49.994;8.184;2024-01-10T06:30:40;101062.09;;;-5.42;68.95
83488;BME280;73424;49.994;8.184;2024-01-10T06:33:06;101034.13;;;-5.56;68.64
83488;BME280;73424;49.994;8.184;2024-01-10T06:35:32;101052.75;;;-5.46;67.94
83488;BME280;73424;49.994;8.184;2024-01-10T06:37:57;101065.84;;;-5.30;68.09
83488;BME280;73424;49.994;8.184;2024-01-10T06:40:22;101062.50;;;-5.32;67.67
83488;BME280;73424;49.994;8.184;2024-01-10T06:42:48;101036.28;;;-5.46;67.80
83488;BME280;73424;49.994;8.184;2024-01-10T06:45:13;101046.69;;;-5.46;67.39
83488;BME280;73424;49.994;8.184;2024-01-10T06:47:39;101058.97;;;-5.31;67.42
83488;BME280;73424;49.994;8.184;2024-01-10T06:50:05;101058.97;;;-5.31;67.65
83488;BME280;73424;49.994;8.184;2024-01-10T06:52:31;101036.59;;;-5.53;67.52
83488;BME280;73424;49.994;8.184;2024-01-10T06:54:56;101064.75;;;-5.43;68.04
83488;BME280;73424;49.994;8.184;2024-01-10T06:57:22;101002.78;;;-5.70;67.79
83488;BME280;73424;49.994;8.184;2024-01-10T06:59:47;100961.81;;;-6.00;67.65
83488;BME280;73424;49.994;8.184;2024-01-10T07:02:12;101030.41;;;-5.69;68.00
83488;BME280;73424;49.994;8.184;2024-01-10T07:04:38;101048.25;;;-5.80;68.10
83488;BME280;73424;49.994;8.184;2024-01-10T07:07:03;101028.84;;;-5.90;68.01
83488;BME280;73424;49.994;8.184;2024-01-10T07:09:29;101080.28;;;-5.61;68.58
83488;BME280;73424;49.994;8.184;2024-01-10T07:11:54;101024.84;;;-5.78;68.10
83488;BME280;73424;49.994;8.184;2024-01-10T07:14:19;101036.16;;;-5.62;68.35
83488;BME280;73424;49.994;8.184;2024-01-10T07:16:45;101027.06;;;-5.71;68.15
83488;BME280;73424;49.994;8.184;2024-01-10T07:19:12;101065.69;;;-5.44;68.15
83488;BME280;73424;49.994;8.184;2024-01-10T07:21:39;101066.50;;;-5.44;68.36
83488;BME280;73424;49.994;8.184;2024-01-10T07:24:04;101086.81;;;-5.33;66.97
83488;BME280;73424;49.994;8.184;2024-01-10T07:26:30;101047.78;;;-5.51;66.83
83488;BME280;73424;49.994;8.184;2024-01-10T07:28:55;101087.81;;;-5.19;67.03
83488;BME280;73424;49.994;8.184;2024-01-10T07:31:20;101075.34;;;-5.29;66.55
83488;BME280;73424;49.994;8.184;2024-01-10T07:33:46;101083.78;;;-5.24;66.94
83488;BME280;73424;49.994;8.184;2024-01-10T07:36:11;101081.22;;;-5.26;67.08
83488;BME280;73424;49.994;8.184;2024-01-10T07:38:36;101057.22;;;-5.31;66.15
83488;BME280;73424;49.994;8.184;2024-01-10T07:41:01;101073.91;;;-5.18;67.38
83488;BME280;73424;49.994;8.184;2024-01-10T07:43:27;101064.94;;;-5.29;67.06
83488;BME280;73424;49.994;8.184;2024-01-10T07:45:52;101079.00;;;-5.33;67.69
83488;BME280;73424;49.994;8.184;2024-01-10T07:48:18;101108.06;;;-5.07;67.27
83488;BME280;73424;49.994;8.184;2024-01-10T07:50:43;100989.63;;;-5.67;66.42
83488;BME280;73424;49.994;8.184;2024-01-10T07:53:09;101112.59;;;-4.93;66.34
83488;BME280;73424;49.994;8.184;2024-01-10T07:55:35;101115.31;;;-4.77;67.35
83488;BME280;73424;49.994;8.184;2024-01-10T07:58:00;101063.22;;;-5.12;67.06
83488;BME280;73424;49.994;8.184;2024-01-10T08:00:26;101105.56;;;-4.74;66.52
83488;BME280;73424;49.994;8.184;2024-01-10T08:02:51;101085.03;;;-4.80;65.80
83488;BME280;73424;49.994;8.184;2024-01-10T08:05:16;101081.06;;;-4.70;64.47
83488;BME280;73424;49.994;8.184;2024-01-10T08:07:42;101085.38;;;-4.52;63.57
83488;BME280;73424;49.994;8.184;2024-01-10T08:10:09;101086.19;;;-4.34;62.94
83488;BME280;73424;49.994;8.184;2024-01-10T08:12:38;101093.63;;;-4.26;62.94
83488;BME280;73424;49.994;8.184;2024-01-10T08:15:07;101129.31;;;-4.11;63.27
83488;BME280;73424;49.994;8.184;2024-01-10T08:17:32;101106.69;;;-4.11;62.49
83488;BME280;73424;49.994;8.184;2024-01-10T08:19:58;101130.78;;;-3.90;61.40
83488;BME280;73424;49.994;8.184;2024-01-10T08:22:24;101102.03;;;-4.04;61.44
83488;BME280;73424;49.994;8.184;2024-01-10T08:24:49;101115.25;;;-3.92;62.62
83488;BME280;73424;49.994;8.184;2024-01-10T08:27:15;101126.16;;;-3.85;63.14
83488;BME280;73424;49.994;8.184;2024-01-10T08:29:42;101109.25;;;-3.94;62.98
83488;BME280;73424;49.994;8.184;2024-01-10T08:32:07;101097.28;;;-3.80;61.36
83488;BME280;73424;49.994;8.184;2024-01-10T08:34:32;101107.69;;;-3.80;60.63
83488;BME280;73424;49.994;8.184;2024-01-10T08:36:58;101130.94;;;-3.60;60.19
83488;BME280;73424;49.994;8.184;2024-01-10T08:39:23;101093.44;;;-3.73;59.70
83488;BME280;73424;49.994;8.184;2024-01-10T08:41:51;101135.28;;;-3.28;59.38
83488;BME280;73424;49.994;8.184;2024-01-10T08:44:18;101140.38;;;-3.26;58.97
83488;BME280;73424;49.994;8.184;2024-01-10T08:46:43;101094.03;;;-3.53;60.25
83488;BME280;73424;49.994;8.184;2024-01-10T08:49:09;101135.28;;;-3.12;60.51
83488;BME280;73424;49.994;8.184;2024-01-10T08:51:35;101133.75;;;-3.01;57.98
83488;BME280;73424;49.994;8.184;2024-01-10T08:54:00;101137.72;;;-2.94;59.56
83488;BME280;73424;49.994;8.184;2024-01-10T08:56:25;101122.78;;;-2.92;58.20
83488;BME280;73424;49.994;8.184;2024-01-10T08:58:51;101112.38;;;-3.23;58.32
83488;BME280;73424;49.994;8.184;2024-01-10T09:01:17;101140.50;;;-2.97;58.18
83488;BME280;73424;49.994;8.184;2024-01-10T09:03:42;101131.31;;;-3.04;57.71
83488;BME280;73424;49.994;8.184;2024-01-10T09:06:07;101152.09;;;-3.02;58.34
83488;BME280;73424;49.994;8.184;2024-01-10T09:08:34;101147.53;;;-3.14;58.65
83488;BME280;73424;49.994;8.184;2024-01-10T09:10:59;101154.13;;;-2.92;58.27
83488;BME280;73424;49.994;8.184;2024-01-10T09:13:24;101163.38;;;-2.86;57.60
83488;BME280;73424;49.994;8.184;2024-01-10T09:15:49;101051.06;;;-3.46;57.24
83488;BME280;73424;49.994;8.184;2024-01-10T09:18:15;101158.47;;;-2.77;57.24
83488;BME280;73424;49.994;8.184;2024-01-10T09:20:40;101136.16;;;-2.82;58.24
83488;BME280;73424;49.994;8.184;2024-01-10T09:23:05;101131.69;;;-2.80;57.95
83488;BME280;73424;49.994;8.184;2024-01-10T09:25:31;101133.81;;;-2.87;57.04
83488;BME280;73424;49.994;8.184;2024-01-10T09:27:56;101136.34;;;-2.85;57.14
83488;BME280;73424;49.994;8.184;2024-01-10T09:30:22;101157.47;;;-2.74;57.46
83488;BME280;73424;49.994;8.184;2024-01-10T09:32:49;101151.16;;;-2.70;58.21
83488;BME280;73424;49.994;8.184;2024-01-10T09:35:14;101150.38;;;-2.72;56.94
83488;BME280;73424;49.994;8.184;2024-01-10T09:37:39;101163.00;;;-2.64;57.05
83488;BME280;73424;49.994;8.184;2024-01-10T09:40:05;101158.00;;;-2.53;56.83
83488;BME280;73424;49.994;8.184;2024-01-10T09:42:34;101156.59;;;-2.59;56.85
83488;BME280;73424;49.994;8.184;2024-01-10T09:45:03;101155.88;;;-2.47;56.98
83488;BME280;73424;49.994;8.184;2024-01-10T09:47:29;101132.34;;;-2.61;56.39
83488;BME280;73424;49.994;8.184;2024-01-10T09:49:56;101151.06;;;-2.39;55.95
83488;BME280;73424;49.994;8.184;2024-01-10T09:52:27;101150.66;;;-2.47;55.96
83488;BME280;73424;49.994;8.184;2024-01-10T09:54:57;101128.03;;;-2.62;55.79
83488;BME280;73424;49.994;8.184;2024-01-10T09:57:23;101104.13;;;-2.70;56.02
83488;BME280;73424;49.994;8.184;2024-01-10T09:59:50;101131.63;;;-2.49;55.81
83488;BME280;73424;49.994;8.184;2024-01-10T10:02:17;101109.03;;;-2.50;55.43
83488;BME280;73424;49.994;8.184;2024-01-10T10:05:08;101139.72;;;-2.24;55.39
83488;BME280;73424;49.994;8.184;2024-01-10T10:07:50;101147.56;;;-2.24;55.88
83488;BME280;73424;49.994;8.184;2024-01-10T10:10:16;101140.53;;;-2.23;56.10
83488;BME280;73424;49.994;8.184;2024-01-10T10:15:18;101137.97;;;-2.09;55.25
83488;BME280;73424;49.994;8.184;2024-01-10T10:17:45;101104.59;;;-2.34;54.79
83488;BME280;73424;49.994;8.184;2024-01-10T10:23:04;101146.84;;;-1.97;55.18
83488;BME280;73424;49.994;8.184;2024-01-10T10:25:37;101126.50;;;-2.06;55.25
83488;BME280;73424;49.994;8.184;2024-01-10T10:28:07;101095.84;;;-2.33;54.32
83488;BME280;73424;49.994;8.184;2024-01-10T10:30:33;101131.97;;;-2.25;54.90
83488;BME280;73424;49.994;8.184;2024-01-10T10:32:59;101122.06;;;-2.20;54.61
83488;BME280;73424;49.994;8.184;2024-01-10T10:35:24;101128.63;;;-2.13;54.59
83488;BME280;73424;49.994;8.184;2024-01-10T10:37:51;101145.56;;;-1.90;54.65
83488;BME280;73424;49.994;8.184;2024-01-10T10:40:18;101144.16;;;-1.82;55.37
83488;BME280;73424;49.994;8.184;2024-01-10T10:42:45;101098.28;;;-2.01;54.71
83488;BME280;73424;49.994;8.184;2024-01-10T10:45:14;101094.69;;;-1.99;54.17
83488;BME280;73424;49.994;8.184;2024-01-10T10:47:41;101148.66;;;-1.41;53.43
83488;BME280;73424;49.994;8.184;2024-01-10T10:50:12;101141.25;;;-1.49;53.52
83488;BME280;73424;49.994;8.184;2024-01-10T10:52:41;101118.78;;;-1.66;54.10
83488;BME280;73424;49.994;8.184;2024-01-10T10:55:10;101154.59;;;-1.25;54.26
83488;BME280;73424;49.994;8.184;2024-01-10T10:57:38;101151.44;;;-1.30;53.78
83488;BME280;73424;49.994;8.184;2024-01-10T11:00:05;101134.56;;;-1.12;52.74
83488;BME280;73424;49.994;8.184;2024-01-10T11:02:32;101142.25;;;-1.23;52.84
83488;BME280;73424;49.994;8.184;2024-01-10T11:04:58;101113.25;;;-1.47;53.68
83488;BME280;73424;49.994;8.184;2024-01-10T11:07:24;101151.44;;;-1.30;53.54
83488;BME280;73424;49.994;8.184;2024-01-10T11:09:50;101118.19;;;-1.56;53.17
83488;BME280;73424;49.994;8.184;2024-01-10T11:12:24;101131.53;;;-1.33;53.47
83488;BME280;73424;49.994;8.184;2024-01-10T11:15:20;101144.25;;;-1.41;53.34
83488;BME280;73424;49.994;8.184;2024-01-10T11:21:06;101140.72;;;-0.99;52.39
83488;BME280;73424;49.994;8.184;2024-01-10T11:23:43;101147.13;;;-0.90;52.64
83488;BME280;73424;49.994;8.184;2024-01-10T11:26:10;101119.19;;;-1.04;52.11
83488;BME280;73424;49.994;8.184;2024-01-10T11:28:36;101131.66;;;-0.81;51.79
83488;BME280;73424;49.994;8.184;2024-01-10T11:31:03;101139.63;;;-0.82;51.32
83488;BME280;73424;49.994;8.184;2024-01-10T11:33:32;101133.19;;;-0.91;51.12
83488;BME280;73424;49.994;8.184;2024-01-10T11:38:59;101082.06;;;-0.96;50.34
83488;BME280;73424;49.994;8.184;2024-01-10T11:46:39;101114.84;;;-0.64;50.17
83488;BME280;73424;49.994;8.184;2024-01-10T11:49:08;101129.47;;;-0.47;50.36
83488;BME280;73424;49.994;8.184;2024-01-10T11:51:35;101116.66;;;-0.52;50.34
83488;BME280;73424;49.994;8.184;2024-01-10T11:54:01;101074.81;;;-0.66;49.21
83488;BME280;73424;49.994;8.184;2024-01-10T11:56:38;101112.81;;;-0.46;48.84
83488;BME280;73424;49.994;8.184;2024-01-10T11:59:06;101076.09;;;-0.59;49.75
83488;BME280;73424;49.994;8.184;2024-01-10T12:01:39;101108.50;;;-0.47;49.54
83488;BME280;73424;49.994;8.184;2024-01-10T12:04:05;101062.94;;;-0.84;49.68
83488;BME280;73424;49.994;8.184;2024-01-10T12:06:37;101098.47;;;-0.80;50.49
83488;BME280;73424;49.994;8.184;2024-01-10T12:09:03;101109.06;;;-0.69;50.93
83488;BME280;73424;49.994;8.184;2024-01-10T12:11:39;101073.72;;;-0.89;50.03
83488;BME280;73424;49.994;8.184;2024-01-10T12:14:05;101086.78;;;-0.62;50.05
83488;BME280;73424;49.994;8.184;2024-01-10T12:16:34;101078.34;;;-0.67;49.90
83488;BME280;73424;49.994;8.184;2024-01-10T12:18:59;101103.53;;;-0.52;49.70
83488;BME280;73424;49.994;8.184;2024-01-10T12:21:24;101070.88;;;-0.46;49.60
83488;BME280;73424;49.994;8.184;2024-01-10T12:23:50;101016.09;;;-0.76;49.45
83488;BME280;73424;49.994;8.184;2024-01-10T12:26:16;101041.06;;;-0.71;49.13
83488;BME280;73424;49.994;8.184;2024-01-10T12:28:55;101072.94;;;-0.51;49.50
83488;BME280;73424;49.994;8.184;2024-01-10T12:31:21;100998.69;;;-0.90;48.14
83488;BME280;73424;49.994;8.184;2024-01-10T12:33:51;101079.97;;;-0.52;48.50
83488;BME280;73424;49.994;8.184;2024-01-10T12:36:17;101082.50;;;-0.50;47.26
83488;BME280;73424;49.994;8.184;2024-01-10T12:38:43;101075.94;;;-0.70;47.93
83488;BME280;73424;49.994;8.184;2024-01-10T12:41:11;101076.69;;;-0.68;48.97
83488;BME280;73424;49.994;8.184;2024-01-10T12:43:39;101103.03;;;-0.57;48.14
83488;BME280;73424;49.994;8.184;2024-01-10T12:46:08;101095.56;;;-0.63;48.19
83488;BME280;73424;49.994;8.184;2024-01-10T12:48:36;101035.97;;;-0.99;47.78
83488;BME280;73424;49.994;8.184;2024-01-10T12:51:04;101085.06;;;-0.76;48.23
83488;BME280;73424;49.994;8.184;2024-01-10T12:53:42;101048.09;;;-1.11;48.93
83488;BME280;73424;49.994;8.184;2024-01-10T12:56:10;101096.38;;;-0.75;49.63
83488;BME280;73424;49.994;8.184;2024-01-10T12:58:39;101072.44;;;-0.96;50.04
83488;BME280;73424;49.994;8.184;2024-01-10T13:01:05;101066.38;;;-0.84;49.94
83488;BME280;73424;49.994;8.184;2024-01-10T13:03:31;101081.06;;;-0.81;49.60
83488;BME280;73424;49.994;8.184;2024-01-10T13:05:56;101050.00;;;-1.00;50.41
83488;BME280;73424;49.994;8.184;2024-01-10T13:08:21;101049.91;;;-0.98;49.17